Time;durP1;ratioP1;P1;durP2;ratioP2;P2;SDS_P1;SDS_P2;PMS_P1;PMS_P2;Temp;Humidity;BMP_temperature;BMP_pressure;BME280_temperature;BME280_humidity;BME280_pressure;Samples;Min_cycle;Max_cycle;Signal;HPM_P1;HPM_P2
2023/12/05 00:00:29;;;;;;;15.27;10.47;;;5.90;78.30;;;;;;5043374;28;20043;-70
2023/12/05 00:02:55;;;;;;;16.37;11.53;;;5.90;78.30;;;;;;5055776;28;20078;-70
2023/12/05 00:05:22;;;;;;;16.10;10.93;;;5.90;78.30;;;;;;5079802;28;20041;-70
2023/12/05 00:07:47;;;;;;;15.33;10.57;;;5.90;78.30;;;;;;5074778;28;20015;-70
2023/12/05 00:10:13;;;;;;;15.13;10.57;;;5.90;78.40;;;;;;5043239;28;20021;-70
2023/12/05 00:12:39;;;;;;;15.30;10.40;;;5.90;78.40;;;;;;5050527;28;20036;-70
2023/12/05 00:15:05;;;;;;;15.43;10.13;;;5.90;78.40;;;;;;5052114;28;20037;-70
2023/12/05 00:17:31;;;;;;;16.20;11.10;;;5.90;78.40;;;;;;5054339;28;20476;-70
2023/12/05 00:19:57;;;;;;;17.00;11.37;;;5.90;78.50;;;;;;5057456;28;20032;-70
2023/12/05 00:22:25;;;;;;;14.90;10.43;;;5.90;78.50;;;;;;5055706;28;20045;-70
2023/12/05 00:24:51;;;;;;;15.47;10.37;;;5.90;78.60;;;;;;5050558;28;20039;-71
2023/12/05 00:27:17;;;;;;;16.53;10.87;;;5.90;78.60;;;;;;5046032;28;20512;-70
2023/12/05 00:29:43;;;;;;;14.47;10.63;;;5.90;78.60;;;;;;5039689;28;20025;-71
2023/12/05 00:32:08;;;;;;;14.63;10.37;;;5.90;78.60;;;;;;5076060;28;20038;-70
2023/12/05 00:34:34;;;;;;;14.67;9.90;;;6.00;78.60;;;;;;5056514;28;20670;-71
2023/12/05 00:37:00;;;;;;;13.17;9.47;;;6.00;78.60;;;;;;5060789;28;20028;-71
2023/12/05 00:39:25;;;;;;;15.97;10.57;;;6.00;79.20;;;;;;5038976;28;20342;-70
2023/12/05 00:41:51;;;;;;;15.40;10.90;;;6.00;78.50;;;;;;5034145;28;20025;-70
2023/12/05 00:44:17;;;;;;;15.53;10.43;;;6.00;78.50;;;;;;5066908;28;20349;-70
2023/12/05 00:46:43;;;;;;;15.20;10.60;;;6.00;78.50;;;;;;5072307;28;20017;-70
2023/12/05 00:49:08;;;;;;;14.33;9.47;;;6.00;78.50;;;;;;5080982;28;20107;-70
2023/12/05 00:51:34;;;;;;;15.90;10.17;;;6.00;78.50;;;;;;5055384;28;20025;-71
2023/12/05 00:54:00;;;;;;;15.30;11.27;;;6.00;78.50;;;;;;5057681;28;20173;-71
2023/12/05 00:56:26;;;;;;;14.63;10.80;;;6.00;78.50;;;;;;5074343;28;20043;-71
2023/12/05 00:58:51;;;;;;;14.93;10.10;;;6.00;78.60;;;;;;5059896;28;20441;-71
2023/12/05 01:01:20;;;;;;;16.27;10.43;;;5.90;78.60;;;;;;5048578;28;20025;-71
2023/12/05 01:03:46;;;;;;;14.47;10.33;;;5.90;78.60;;;;;;5065671;28;20020;-70
2023/12/05 01:06:12;;;;;;;14.93;9.90;;;5.90;78.60;;;;;;5037274;28;20464;-71
2023/12/05 01:08:37;;;;;;;15.23;10.77;;;5.90;78.60;;;;;;5040853;28;20545;-71
2023/12/05 01:11:04;;;;;;;15.70;10.67;;;6.00;78.60;;;;;;5058691;28;20095;-70
2023/12/05 01:13:30;;;;;;;15.60;11.03;;;6.00;78.60;;;;;;5062452;28;20444;-70
2023/12/05 01:15:55;;;;;;;15.67;10.37;;;6.00;78.50;;;;;;5056457;28;20035;-70
2023/12/05 01:18:21;;;;;;;16.30;10.90;;;6.00;78.60;;;;;;5075392;28;20120;-70
2023/12/05 01:20:47;;;;;;;15.53;10.90;;;6.00;78.60;;;;;;5059180;28;20032;-70
2023/12/05 01:23:14;;;;;;;14.20;9.83;;;6.00;78.60;;;;;;5072260;28;20044;-70
2023/12/05 01:25:40;;;;;;;15.33;11.17;;;6.00;78.60;;;;;;5055712;28;20131;-70
2023/12/05 01:28:06;;;;;;;15.80;9.93;;;5.90;78.60;;;;;;5081132;28;20024;-70
2023/12/05 01:30:31;;;;;;;17.33;11.43;;;5.90;78.60;;;;;;5082800;28;20042;-70
2023/12/05 01:32:57;;;;;;;15.43;11.00;;;5.90;78.60;;;;;;5065018;28;20023;-70
2023/12/05 01:35:23;;;;;;;18.83;11.77;;;6.00;78.70;;;;;;5064884;28;20455;-70
2023/12/05 01:37:49;;;;;;;15.60;10.67;;;5.90;78.60;;;;;;5090717;28;20025;-70
2023/12/05 01:40:14;;;;;;;15.03;10.17;;;5.90;78.60;;;;;;5076744;28;20027;-70
2023/12/05 01:42:40;;;;;;;16.47;11.03;;;6.00;78.70;;;;;;5056326;28;20024;-70
2023/12/05 01:45:07;;;;;;;17.00;11.47;;;5.90;78.60;;;;;;5094572;28;20432;-70
2023/12/05 01:47:41;;;;;;;16.50;10.83;;;5.90;78.60;;;;;;5077043;28;20027;-70
2023/12/05 01:50:10;;;;;;;17.30;11.13;;;5.90;78.70;;;;;;5080558;28;20108;-70
2023/12/05 01:52:39;;;;;;;16.03;10.53;;;5.90;78.70;;;;;;5079507;28;20028;-70
2023/12/05 01:55:07;;;;;;;17.23;11.67;;;5.90;78.70;;;;;;5079164;28;20016;-70
2023/12/05 01:57:33;;;;;;;16.30;11.43;;;5.90;78.70;;;;;;5080153;28;20024;-70
2023/12/05 02:00:00;;;;;;;16.47;11.33;;;5.90;78.70;;;;;;5075863;28;20032;-70
2023/12/05 02:02:26;;;;;;;16.83;11.47;;;5.90;78.70;;;;;;5064652;28;20443;-70
2023/12/05 02:04:52;;;;;;;18.63;12.13;;;5.90;78.60;;;;;;5083633;28;20048;-70
2023/12/05 02:07:18;;;;;;;16.37;10.77;;;5.90;78.70;;;;;;5058880;28;20043;-70
2023/12/05 02:09:44;;;;;;;16.03;10.60;;;5.90;78.70;;;;;;5054693;28;20409;-70
2023/12/05 02:12:10;;;;;;;16.33;11.67;;;5.90;78.70;;;;;;5075473;28;20419;-70
2023/12/05 02:14:36;;;;;;;18.07;12.13;;;5.90;78.70;;;;;;5078745;28;20040;-70
2023/12/05 02:17:14;;;;;;;15.47;10.80;;;5.90;78.70;;;;;;5064321;28;20055;-70
2023/12/05 02:20:08;;;;;;;16.17;11.50;;;5.90;78.70;;;;;;5088104;28;20474;-70
2023/12/05 02:23:01;;;;;;;16.20;11.40;;;5.90;78.80;;;;;;5084773;28;20492;-70
2023/12/05 02:26:06;;;;;;;16.67;11.17;;;5.90;78.70;;;;;;5075612;28;20035;-70
2023/12/05 02:28:33;;;;;;;16.13;11.23;;;5.90;78.70;;;;;;5093328;28;20041;-70
2023/12/05 02:30:58;;;;;;;17.03;11.80;;;5.90;78.70;;;;;;5075217;28;20413;-70
2023/12/05 02:33:24;;;;;;;17.37;11.50;;;5.90;78.80;;;;;;5097664;28;20031;-70
2023/12/05 02:36:03;;;;;;;18.83;12.70;;;5.90;78.80;;;;;;5099109;28;20024;-70
2023/12/05 02:38:53;;;;;;;17.50;11.27;;;5.90;78.80;;;;;;5085036;28;20450;-70
2023/12/05 02:41:22;;;;;;;17.83;11.27;;;5.90;78.70;;;;;;5099771;28;20073;-70
2023/12/05 02:44:04;;;;;;;16.97;11.80;;;5.90;78.70;;;;;;5082621;28;20020;-70
2023/12/05 02:46:31;;;;;;;16.90;11.10;;;5.90;78.60;;;;;;5074993;28;20119;-71
2023/12/05 02:48:58;;;;;;;17.13;11.53;;;5.90;78.60;;;;;;5075806;28;20038;-70
2023/12/05 02:51:24;;;;;;;17.43;11.67;;;5.90;78.70;;;;;;5092576;28;20032;-70
2023/12/05 02:53:49;;;;;;;18.23;12.27;;;5.80;78.70;;;;;;5084896;28;20215;-70
2023/12/05 02:56:17;;;;;;;18.77;12.73;;;5.80;78.70;;;;;;5084916;28;20020;-70
2023/12/05 02:58:43;;;;;;;17.60;11.83;;;5.90;78.70;;;;;;5085831;28;20043;-70
2023/12/05 03:01:09;;;;;;;18.50;11.93;;;5.90;78.80;;;;;;5073838;28;20421;-70
2023/12/05 03:03:34;;;;;;;17.50;11.63;;;5.90;78.80;;;;;;5083109;28;20418;-70
2023/12/05 03:06:00;;;;;;;17.43;11.63;;;5.90;78.70;;;;;;5096234;28;20119;-70
2023/12/05 03:08:26;;;;;;;18.93;12.40;;;5.90;78.80;;;;;;5079235;28;20038;-70
2023/12/05 03:10:52;;;;;;;20.50;12.17;;;5.90;78.80;;;;;;5077768;28;20042;-70
2023/12/05 03:13:17;;;;;;;20.63;12.87;;;5.90;78.80;;;;;;5077592;28;20131;-70
2023/12/05 03:15:43;;;;;;;20.03;12.50;;;5.80;78.70;;;;;;5063106;28;20024;-70
2023/12/05 03:18:09;;;;;;;19.97;12.33;;;5.80;78.80;;;;;;5051887;28;20458;-70
2023/12/05 03:20:35;;;;;;;17.27;11.30;;;5.80;78.70;;;;;;5078191;28;20032;-70
2023/12/05 03:23:00;;;;;;;18.13;11.47;;;5.80;78.70;;;;;;5090999;28;20024;-70
2023/12/05 03:25:26;;;;;;;18.70;12.57;;;5.80;78.80;;;;;;5075739;28;20051;-70
2023/12/05 03:27:52;;;;;;;16.80;11.13;;;5.80;78.70;;;;;;5078501;28;20032;-70
2023/12/05 03:30:18;;;;;;;19.30;12.00;;;5.80;78.70;;;;;;5093313;28;20027;-70
2023/12/05 03:32:43;;;;;;;19.63;11.90;;;5.80;78.70;;;;;;5059370;28;20027;-70
2023/12/05 03:35:09;;;;;;;17.00;11.03;;;5.80;78.70;;;;;;5076309;28;20098;-70
2023/12/05 03:37:35;;;;;;;18.13;11.67;;;5.80;78.70;;;;;;5068209;28;20047;-70
2023/12/05 03:40:00;;;;;;;17.43;11.87;;;5.80;78.60;;;;;;5060851;28;20107;-70
2023/12/05 03:42:26;;;;;;;19.13;12.63;;;5.80;78.60;;;;;;5080047;28;20038;-70
2023/12/05 03:44:52;;;;;;;18.60;11.70;;;5.80;79.30;;;;;;5079765;28;20100;-70
2023/12/05 03:47:18;;;;;;;20.70;12.03;;;5.80;78.60;;;;;;5075726;28;20074;-70
2023/12/05 03:49:43;;;;;;;17.17;10.77;;;5.80;79.30;;;;;;5073049;28;20107;-70
2023/12/05 03:52:09;;;;;;;18.13;11.87;;;5.80;78.70;;;;;;5094315;28;20099;-70
2023/12/05 03:54:35;;;;;;;18.73;11.87;;;5.70;79.30;;;;;;5067818;28;20020;-70
2023/12/05 03:57:01;;;;;;;18.30;11.47;;;5.70;78.80;;;;;;5085129;28;20063;-70
2023/12/05 03:59:26;;;;;;;18.00;11.30;;;5.70;78.80;;;;;;5071949;28;20020;-70
2023/12/05 04:01:52;;;;;;;18.53;11.77;;;5.70;78.80;;;;;;5092067;28;20330;-70
2023/12/05 04:04:18;;;;;;;17.03;11.50;;;5.70;78.80;;;;;;5060995;28;20029;-70
2023/12/05 04:06:44;;;;;;;19.00;11.90;;;5.70;78.80;;;;;;5077166;28;20025;-70
2023/12/05 04:09:09;;;;;;;16.50;11.03;;;5.80;78.80;;;;;;5066776;28;20017;-70
2023/12/05 04:11:35;;;;;;;18.23;11.47;;;5.80;78.80;;;;;;5065722;28;20050;-70
2023/12/05 04:14:01;;;;;;;19.00;12.30;;;5.80;78.80;;;;;;5053489;28;20035;-70
2023/12/05 04:16:27;;;;;;;17.50;11.67;;;5.80;78.80;;;;;;5088936;28;20087;-70
2023/12/05 04:18:53;;;;;;;20.00;12.77;;;5.80;78.70;;;;;;5093353;28;20058;-70
2023/12/05 04:21:19;;;;;;;19.03;11.73;;;5.80;78.70;;;;;;5073975;28;20031;-70
2023/12/05 04:23:46;;;;;;;18.10;11.10;;;5.80;78.70;;;;;;5080130;28;20023;-70
2023/12/05 04:26:19;;;;;;;18.13;11.70;;;5.80;78.70;;;;;;5070471;28;20035;-70
2023/12/05 04:28:45;;;;;;;16.87;11.17;;;5.80;78.80;;;;;;5081127;28;20020;-70
2023/12/05 04:31:13;;;;;;;19.70;11.90;;;5.80;78.80;;;;;;5056844;28;20081;-70
2023/12/05 04:33:42;;;;;;;18.60;11.30;;;5.80;78.80;;;;;;5106305;28;20032;-70
2023/12/05 04:36:09;;;;;;;18.33;11.60;;;5.80;78.80;;;;;;5100540;28;20015;-70
2023/12/05 04:38:38;;;;;;;19.10;12.20;;;5.80;78.80;;;;;;5079529;28;20036;-70
2023/12/05 04:41:04;;;;;;;19.23;12.47;;;5.80;78.90;;;;;;5086349;28;20032;-70
2023/12/05 04:43:31;;;;;;;18.57;11.60;;;5.80;78.90;;;;;;5083402;28;20041;-70
2023/12/05 04:45:57;;;;;;;17.93;11.93;;;5.80;78.90;;;;;;5075028;28;20020;-70
2023/12/05 04:48:22;;;;;;;19.70;12.23;;;5.70;78.80;;;;;;5081501;28;20058;-70
2023/12/05 04:50:48;;;;;;;17.40;11.07;;;5.70;78.80;;;;;;5088891;28;20037;-70
2023/12/05 04:53:14;;;;;;;18.90;12.03;;;5.70;78.80;;;;;;5057563;28;20028;-70
2023/12/05 04:55:40;;;;;;;19.50;12.40;;;5.70;78.90;;;;;;5075718;28;20028;-70
2023/12/05 04:58:05;;;;;;;17.50;11.00;;;5.70;78.90;;;;;;5095136;28;20052;-70
2023/12/05 05:00:32;;;;;;;18.20;11.00;;;5.80;79.60;;;;;;5100016;28;20463;-70
2023/12/05 05:02:57;;;;;;;19.10;11.77;;;5.70;78.90;;;;;;5081956;28;20027;-70
2023/12/05 05:05:23;;;;;;;18.47;12.17;;;5.70;78.90;;;;;;5068500;28;20542;-70
2023/12/05 05:07:49;;;;;;;16.83;10.87;;;5.70;78.90;;;;;;5065750;28;20046;-70
2023/12/05 05:10:14;;;;;;;17.57;11.53;;;5.70;78.90;;;;;;5062119;28;20024;-70
2023/12/05 05:12:40;;;;;;;17.90;11.63;;;5.70;78.90;;;;;;5080889;28;20059;-70
2023/12/05 05:15:07;;;;;;;19.03;12.53;;;5.80;78.90;;;;;;5086793;28;20085;-70
2023/12/05 05:17:32;;;;;;;18.13;11.77;;;5.80;78.90;;;;;;5098243;28;20043;-70
2023/12/05 05:19:58;;;;;;;18.60;11.57;;;5.80;78.90;;;;;;5067015;28;20034;-70
2023/12/05 05:22:24;;;;;;;18.23;11.47;;;5.80;79.00;;;;;;5068794;28;20028;-70
2023/12/05 05:24:50;;;;;;;19.03;11.47;;;5.80;78.90;;;;;;5072650;28;20119;-70
2023/12/05 05:27:15;;;;;;;18.50;11.90;;;5.80;78.90;;;;;;5101842;28;20103;-70
2023/12/05 05:29:41;;;;;;;17.37;10.53;;;5.80;78.90;;;;;;5086538;28;20034;-70
2023/12/05 05:32:07;;;;;;;17.83;10.70;;;5.80;78.90;;;;;;5076003;28;20433;-70
2023/12/05 05:34:32;;;;;;;17.50;11.33;;;5.80;78.90;;;;;;5069715;28;20089;-70
2023/12/05 05:36:58;;;;;;;18.43;11.73;;;5.80;79.00;;;;;;5099300;28;20038;-70
2023/12/05 05:39:24;;;;;;;18.13;11.17;;;5.80;79.00;;;;;;5098007;28;20029;-70
2023/12/05 05:41:50;;;;;;;15.80;10.70;;;5.80;79.00;;;;;;5100304;28;20027;-70
2023/12/05 05:44:16;;;;;;;19.83;11.70;;;5.80;79.00;;;;;;5083817;28;20016;-70
2023/12/05 05:46:42;;;;;;;15.27;10.83;;;5.80;79.00;;;;;;5098208;28;20364;-70
2023/12/05 05:49:07;;;;;;;15.57;9.80;;;5.80;79.00;;;;;;5079991;28;20024;-70
2023/12/05 05:51:33;;;;;;;17.23;10.87;;;5.80;79.00;;;;;;5076273;28;20370;-70
2023/12/05 05:53:59;;;;;;;17.50;10.93;;;5.80;79.00;;;;;;5094791;28;20024;-70
2023/12/05 05:56:25;;;;;;;19.57;11.53;;;5.80;79.00;;;;;;5079224;28;20066;-70
2023/12/05 05:58:50;;;;;;;16.27;10.33;;;5.80;79.00;;;;;;5104521;28;20024;-70
2023/12/05 06:01:16;;;;;;;17.47;11.07;;;5.80;79.00;;;;;;5065940;28;20024;-70
2023/12/05 06:03:42;;;;;;;16.90;10.40;;;5.80;79.00;;;;;;5076925;28;20039;-70
2023/12/05 06:06:09;;;;;;;16.80;10.73;;;5.80;79.00;;;;;;5091685;28;20464;-70
2023/12/05 06:08:35;;;;;;;18.30;11.23;;;5.80;79.00;;;;;;5094512;28;20462;-70
2023/12/05 06:11:01;;;;;;;17.17;11.20;;;5.80;79.00;;;;;;5094217;28;20106;-70
2023/12/05 06:13:27;;;;;;;17.57;10.73;;;5.80;79.00;;;;;;5092199;28;20032;-70
2023/12/05 06:15:52;;;;;;;15.37;9.77;;;5.80;79.00;;;;;;5077430;28;20108;-70
2023/12/05 06:18:18;;;;;;;15.83;9.57;;;5.80;79.10;;;;;;5065273;28;20117;-70
2023/12/05 06:20:44;;;;;;;17.67;11.37;;;5.80;79.10;;;;;;5084269;28;20029;-70
2023/12/05 06:23:10;;;;;;;17.53;11.00;;;5.80;79.00;;;;;;5095248;28;20107;-70
2023/12/05 06:25:36;;;;;;;17.53;11.17;;;5.70;79.00;;;;;;5091593;28;20473;-69
2023/12/05 06:28:02;;;;;;;16.43;10.43;;;5.80;79.10;;;;;;5088620;28;20442;-69
2023/12/05 06:30:28;;;;;;;18.07;11.23;;;5.80;79.10;;;;;;5089676;28;20107;-69
2023/12/05 06:32:54;;;;;;;16.03;10.23;;;5.80;79.10;;;;;;5088160;28;20019;-69
2023/12/05 06:35:19;;;;;;;17.57;10.83;;;5.80;79.10;;;;;;5099684;28;20031;-69
2023/12/05 06:37:45;;;;;;;16.07;10.50;;;5.80;79.10;;;;;;5101936;28;20031;-70
2023/12/05 06:40:11;;;;;;;16.60;10.50;;;5.80;79.10;;;;;;5089288;28;20035;-69
2023/12/05 06:42:38;;;;;;;15.90;10.20;;;5.80;79.10;;;;;;5075178;28;20047;-69
2023/12/05 06:45:04;;;;;;;15.97;10.33;;;5.80;79.10;;;;;;5075154;28;20031;-71
2023/12/05 06:47:30;;;;;;;18.13;11.53;;;5.80;79.20;;;;;;5044332;28;20318;-69
2023/12/05 06:50:01;;;;;;;17.23;11.20;;;5.80;79.20;;;;;;5068235;28;20024;-70
2023/12/05 06:52:27;;;;;;;17.83;11.13;;;5.80;79.20;;;;;;5097486;28;20097;-70
2023/12/05 06:54:53;;;;;;;16.13;10.77;;;5.80;79.20;;;;;;5095835;28;20020;-70
2023/12/05 06:57:18;;;;;;;17.70;11.47;;;5.80;79.30;;;;;;5096980;28;20032;-70
2023/12/05 06:59:44;;;;;;;16.73;11.30;;;5.80;79.20;;;;;;5079758;28;20028;-70
2023/12/05 07:02:10;;;;;;;16.40;10.27;;;5.80;79.30;;;;;;5094990;28;20027;-70
2023/12/05 07:04:36;;;;;;;15.67;10.07;;;5.80;79.20;;;;;;5105548;28;20050;-70
2023/12/05 07:07:01;;;;;;;17.70;10.77;;;5.80;79.20;;;;;;5072687;28;20020;-70
2023/12/05 07:09:27;;;;;;;18.20;11.80;;;5.80;79.90;;;;;;5071072;28;20032;-70
2023/12/05 07:11:53;;;;;;;16.83;11.10;;;5.80;79.20;;;;;;5099825;28;20059;-70
2023/12/05 07:14:18;;;;;;;18.23;12.07;;;5.80;79.30;;;;;;5102830;28;20043;-70
2023/12/05 07:16:45;;;;;;;16.30;10.60;;;5.80;79.30;;;;;;5094540;28;20028;-70
2023/12/05 07:19:11;;;;;;;19.30;11.37;;;5.80;79.20;;;;;;5086703;28;20152;-70
2023/12/05 07:21:36;;;;;;;19.73;11.87;;;5.80;79.20;;;;;;5084335;28;20119;-70
2023/12/05 07:24:02;;;;;;;19.60;11.63;;;5.80;79.20;;;;;;5065943;28;20023;-70
2023/12/05 07:26:28;;;;;;;19.07;12.10;;;5.80;79.20;;;;;;5096895;28;20024;-69
2023/12/05 07:28:54;;;;;;;18.37;11.87;;;5.70;79.20;;;;;;5112971;28;20156;-70
2023/12/05 07:31:20;;;;;;;18.03;11.50;;;5.70;79.20;;;;;;5083990;28;20084;-70
2023/12/05 07:33:46;;;;;;;19.43;11.67;;;5.70;79.20;;;;;;5082819;28;20046;-71
2023/12/05 07:36:13;;;;;;;18.63;12.03;;;5.80;79.20;;;;;;5094200;28;20127;-70
2023/12/05 07:38:39;;;;;;;19.27;11.93;;;5.80;79.20;;;;;;5079050;28;20114;-72
2023/12/05 07:41:04;;;;;;;21.70;12.77;;;5.80;79.10;;;;;;5063456;28;20461;-72
2023/12/05 07:43:30;;;;;;;20.57;13.37;;;5.90;79.20;;;;;;5089917;28;20028;-72
2023/12/05 07:45:56;;;;;;;17.93;11.97;;;5.90;79.70;;;;;;5092311;28;20497;-67
2023/12/05 07:48:22;;;;;;;22.67;13.70;;;5.90;79.70;;;;;;5074049;28;20024;-71
2023/12/05 07:50:48;;;;;;;17.63;11.47;;;5.90;79.00;;;;;;5071762;28;20020;-71
2023/12/05 07:53:14;;;;;;;20.77;13.30;;;5.90;78.90;;;;;;5090280;28;20016;-70
2023/12/05 07:55:40;;;;;;;22.03;13.70;;;5.90;79.00;;;;;;5058287;28;20031;-71
2023/12/05 07:58:05;;;;;;;20.03;13.10;;;5.80;78.90;;;;;;5092705;28;20468;-71
2023/12/05 08:00:31;;;;;;;22.43;13.83;;;5.80;79.60;;;;;;5086313;28;20028;-71
2023/12/05 08:02:57;;;;;;;22.93;13.70;;;5.80;79.10;;;;;;5098803;28;20029;-71
2023/12/05 08:05:23;;;;;;;19.60;12.93;;;5.80;79.10;;;;;;5106832;28;20036;-71
2023/12/05 08:07:49;;;;;;;19.77;13.23;;;5.80;79.10;;;;;;5099892;28;20016;-71
2023/12/05 08:10:17;;;;;;;21.80;13.90;;;5.80;79.20;;;;;;5076702;28;20356;-71
2023/12/05 08:12:43;;;;;;;19.30;13.30;;;5.70;79.10;;;;;;5079814;28;20465;-70
2023/12/05 08:15:09;;;;;;;21.53;13.30;;;5.70;79.10;;;;;;5080212;28;20069;-71
2023/12/05 08:17:35;;;;;;;19.53;12.73;;;5.70;79.10;;;;;;5095164;28;20157;-71
2023/12/05 08:20:01;;;;;;;21.07;14.27;;;5.70;79.10;;;;;;5075293;28;20040;-71
2023/12/05 08:22:26;;;;;;;21.33;13.43;;;5.80;79.20;;;;;;5089663;28;20043;-69
2023/12/05 08:24:52;;;;;;;21.10;13.43;;;5.70;79.10;;;;;;5084731;28;20028;-70
2023/12/05 08:27:18;;;;;;;19.50;12.80;;;5.80;79.20;;;;;;5096371;28;20024;-70
2023/12/05 08:29:43;;;;;;;20.63;13.50;;;5.70;79.20;;;;;;5097640;28;20094;-70
2023/12/05 08:32:10;;;;;;;20.67;13.67;;;5.70;79.10;;;;;;5093570;28;20090;-70
2023/12/05 08:34:36;;;;;;;20.97;13.27;;;5.80;79.20;;;;;;5083160;28;20524;-70
2023/12/05 08:37:02;;;;;;;21.87;13.27;;;5.70;79.10;;;;;;5100191;28;20135;-70
2023/12/05 08:39:28;;;;;;;22.77;12.43;;;5.80;79.20;;;;;;5117857;28;20084;-70
2023/12/05 08:41:55;;;;;;;19.90;13.10;;;5.80;79.20;;;;;;5093275;28;20035;-70
2023/12/05 08:44:21;;;;;;;19.47;12.57;;;5.80;79.20;;;;;;5083308;28;20125;-70
2023/12/05 08:46:46;;;;;;;20.23;12.70;;;5.80;79.20;;;;;;5100196;28;20310;-70
2023/12/05 08:49:13;;;;;;;19.70;12.13;;;5.80;79.20;;;;;;5085723;28;20437;-70
2023/12/05 08:51:39;;;;;;;20.03;12.87;;;5.80;79.10;;;;;;5102329;28;20035;-70
2023/12/05 08:54:05;;;;;;;20.00;12.73;;;5.80;79.10;;;;;;5097248;28;20329;-70
2023/12/05 08:56:32;;;;;;;20.57;13.30;;;5.80;79.10;;;;;;5097663;28;20479;-70
2023/12/05 08:58:58;;;;;;;19.20;12.17;;;5.80;79.10;;;;;;5097489;28;20031;-69
2023/12/05 09:01:23;;;;;;;18.43;12.23;;;5.80;79.00;;;;;;5078459;28;20401;-69
2023/12/05 09:03:50;;;;;;;19.13;12.43;;;5.80;79.00;;;;;;5079421;28;20100;-70
2023/12/05 09:06:16;;;;;;;19.87;13.20;;;5.80;79.10;;;;;;5097568;28;20024;-70
2023/12/05 09:08:41;;;;;;;18.80;12.17;;;5.90;79.20;;;;;;5079262;28;20440;-70
2023/12/05 09:11:08;;;;;;;19.47;13.10;;;5.80;79.10;;;;;;5096370;28;20035;-69
2023/12/05 09:13:33;;;;;;;17.30;11.27;;;5.80;79.10;;;;;;5079059;28;20082;-70
2023/12/05 09:15:59;;;;;;;19.50;11.50;;;5.90;79.20;;;;;;5079025;28;20448;-69
2023/12/05 09:18:25;;;;;;;17.60;11.10;;;5.90;79.20;;;;;;5097066;28;20040;-69
2023/12/05 09:20:51;;;;;;;19.53;12.77;;;5.90;79.20;;;;;;5079023;28;20367;-69
2023/12/05 09:23:17;;;;;;;17.80;11.10;;;5.80;79.10;;;;;;5095325;28;20032;-70
2023/12/05 09:25:43;;;;;;;19.13;12.50;;;5.90;79.20;;;;;;5082269;28;20023;-70
2023/12/05 09:28:09;;;;;;;18.77;12.23;;;5.80;79.10;;;;;;5117023;28;20098;-70
2023/12/05 09:30:35;;;;;;;17.50;11.13;;;5.80;79.10;;;;;;5098804;28;20028;-70
2023/12/05 09:33:01;;;;;;;17.50;11.60;;;5.90;79.10;;;;;;5099509;28;20028;-70
2023/12/05 09:35:27;;;;;;;17.63;11.77;;;5.80;79.10;;;;;;5117375;28;20428;-70
2023/12/05 09:37:53;;;;;;;18.20;11.77;;;5.90;79.20;;;;;;5093538;28;20034;-70
2023/12/05 09:40:19;;;;;;;18.00;11.30;;;5.80;79.10;;;;;;5117099;28;20114;-70
2023/12/05 09:42:48;;;;;;;18.03;11.83;;;5.90;79.20;;;;;;5098867;28;20173;-70
2023/12/05 09:45:16;;;;;;;17.97;11.73;;;5.90;79.20;;;;;;5098679;28;20065;-70
2023/12/05 09:47:45;;;;;;;17.80;11.30;;;5.90;79.20;;;;;;5094742;28;20028;-70
2023/12/05 09:50:11;;;;;;;18.60;11.33;;;5.90;79.10;;;;;;5114648;28;20023;-70
2023/12/05 09:52:37;;;;;;;18.47;11.27;;;5.80;79.00;;;;;;5116350;28;20031;-70
2023/12/05 09:55:04;;;;;;;18.63;10.93;;;5.80;79.00;;;;;;5103343;28;20179;-70
2023/12/05 09:57:29;;;;;;;18.10;11.30;;;5.80;79.10;;;;;;5114431;28;20028;-70
2023/12/05 09:59:55;;;;;;;19.43;10.53;;;5.80;79.10;;;;;;5099972;28;20023;-70
2023/12/05 10:02:23;;;;;;;17.43;10.53;;;5.80;79.10;;;;;;5098492;28;20074;-70
2023/12/05 10:04:54;;;;;;;17.87;11.67;;;5.80;79.10;;;;;;5098453;28;20031;-70
2023/12/05 10:07:22;;;;;;;18.80;11.60;;;5.80;79.10;;;;;;5106567;28;20471;-70
2023/12/05 10:09:48;;;;;;;18.17;11.90;;;5.80;79.10;;;;;;5069107;28;20437;-70
2023/12/05 10:12:14;;;;;;;19.17;11.83;;;5.80;79.10;;;;;;5116153;28;20027;-70
2023/12/05 10:14:40;;;;;;;21.97;12.30;;;5.80;79.10;;;;;;5081197;28;20124;-70
2023/12/05 10:17:07;;;;;;;20.83;12.40;;;5.80;79.70;;;;;;5075062;28;20028;-70
2023/12/05 10:19:34;;;;;;;18.27;11.27;;;5.80;79.10;;;;;;5094242;28;20028;-70
2023/12/05 10:22:01;;;;;;;17.60;11.53;;;5.80;79.10;;;;;;5085610;28;20038;-70
2023/12/05 10:24:42;;;;;;;16.13;10.83;;;5.90;79.10;;;;;;5104880;28;20110;-70
2023/12/05 10:27:08;;;;;;;19.58;11.52;;;5.80;79.00;;;;;;5111007;28;20024;-69
2023/12/05 10:29:40;;;;;;;17.30;10.77;;;5.90;79.10;;;;;;5106454;28;20080;-69
2023/12/05 10:32:07;;;;;;;17.63;11.87;;;5.90;79.10;;;;;;5108244;28;20059;-69
2023/12/05 10:34:51;;;;;;;19.33;11.87;;;5.90;79.10;;;;;;5087541;28;20336;-70
2023/12/05 10:37:24;;;;;;;20.47;11.63;;;5.90;79.00;;;;;;5097870;28;20332;-70
2023/12/05 10:39:51;;;;;;;18.40;11.77;;;5.90;79.00;;;;;;5097388;28;20039;-70
2023/12/05 10:42:19;;;;;;;20.33;11.67;;;5.90;79.00;;;;;;5115733;28;20286;-69
2023/12/05 10:44:45;;;;;;;19.77;11.97;;;5.90;79.00;;;;;;5101580;28;20030;-70
2023/12/05 10:47:12;;;;;;;16.23;11.17;;;6.00;79.00;;;;;;5115796;28;20320;-70
2023/12/05 10:49:41;;;;;;;20.50;12.53;;;6.00;79.00;;;;;;5097984;28;20381;-69
2023/12/05 10:52:08;;;;;;;19.57;12.57;;;6.00;79.00;;;;;;5070051;28;20108;-70
2023/12/05 10:54:34;;;;;;;20.47;13.07;;;6.00;79.00;;;;;;5081040;28;20464;-70
2023/12/05 10:57:00;;;;;;;18.00;11.50;;;6.00;79.00;;;;;;5097556;28;20042;-70
2023/12/05 10:59:27;;;;;;;21.27;12.53;;;6.00;79.00;;;;;;5097204;28;20030;-70
2023/12/05 11:01:56;;;;;;;19.17;12.13;;;6.00;79.00;;;;;;5115205;28;20109;-70
2023/12/05 11:04:25;;;;;;;20.33;11.63;;;6.00;79.00;;;;;;5086107;28;20068;-70
2023/12/05 11:06:54;;;;;;;21.10;12.90;;;6.00;78.90;;;;;;5086945;28;20028;-70
2023/12/05 11:09:22;;;;;;;20.13;12.27;;;6.00;79.00;;;;;;5097312;28;20106;-69
2023/12/05 11:11:52;;;;;;;21.43;13.07;;;6.00;79.00;;;;;;5097362;28;20115;-69
2023/12/05 11:14:21;;;;;;;22.93;12.50;;;6.00;79.00;;;;;;5103053;28;20032;-70
2023/12/05 11:16:49;;;;;;;20.50;12.60;;;6.00;79.00;;;;;;5078329;28;20038;-70
2023/12/05 11:19:36;;;;;;;23.40;13.80;;;6.00;79.00;;;;;;5115071;28;20044;-69
2023/12/05 11:22:20;;;;;;;24.17;14.63;;;6.10;79.00;;;;;;5097162;28;20024;-69
2023/12/05 11:25:07;;;;;;;19.77;12.43;;;6.10;79.00;;;;;;5086608;28;20024;-70
2023/12/05 11:27:58;;;;;;;21.40;12.67;;;6.10;79.00;;;;;;5056448;28;20297;-70
2023/12/05 11:31:02;;;;;;;22.07;12.40;;;6.10;79.00;;;;;;5115255;28;20028;-69
2023/12/05 11:33:31;;;;;;;20.33;12.93;;;6.00;78.90;;;;;;5097109;28;20058;-70
2023/12/05 11:36:24;;;;;;;18.30;11.57;;;6.00;78.90;;;;;;5086086;28;20027;-69
2023/12/05 11:38:50;;;;;;;21.30;12.37;;;6.00;79.00;;;;;;5114919;28;20051;-69
2023/12/05 11:41:18;;;;;;;23.03;14.03;;;6.00;78.90;;;;;;5113761;28;20035;-70
2023/12/05 11:44:12;;;;;;;19.30;12.50;;;6.00;78.90;;;;;;5114631;28;20050;-70
2023/12/05 11:46:44;;;;;;;22.20;13.67;;;6.00;78.90;;;;;;5099191;28;20031;-70
2023/12/05 11:49:10;;;;;;;20.37;12.37;;;6.00;79.00;;;;;;5114418;28;20055;-70
2023/12/05 11:51:37;;;;;;;18.77;12.03;;;6.00;79.00;;;;;;5090119;28;20056;-70
2023/12/05 11:54:06;;;;;;;22.20;12.80;;;6.00;79.00;;;;;;5107136;28;20020;-70
2023/12/05 11:56:32;;;;;;;18.70;11.90;;;6.00;79.00;;;;;;5090007;28;20038;-70
2023/12/05 11:59:16;;;;;;;19.20;11.60;;;5.90;79.00;;;;;;5096296;28;20024;-70
2023/12/05 12:01:43;;;;;;;18.27;10.77;;;6.00;79.00;;;;;;5090429;28;20037;-70
2023/12/05 12:04:22;;;;;;;16.47;10.20;;;6.00;79.00;;;;;;5114519;28;20163;-70
2023/12/05 12:06:49;;;;;;;17.03;10.90;;;6.00;79.00;;;;;;5066327;28;20077;-70
2023/12/05 12:09:16;;;;;;;18.03;10.90;;;6.00;79.00;;;;;;5096388;28;20028;-70
2023/12/05 12:11:43;;;;;;;18.03;10.90;;;6.00;79.70;;;;;;5114311;28;20088;-70
2023/12/05 12:14:13;;;;;;;17.03;11.43;;;6.00;79.00;;;;;;5114535;28;20104;-70
2023/12/05 12:16:39;;;;;;;17.90;10.97;;;6.00;79.00;;;;;;5092318;28;20028;-70
2023/12/05 12:19:08;;;;;;;18.13;12.07;;;6.00;79.00;;;;;;5114326;28;20047;-70
2023/12/05 12:21:34;;;;;;;20.53;11.47;;;6.00;79.00;;;;;;5096067;28;20046;-70
2023/12/05 12:24:00;;;;;;;22.50;13.60;;;6.00;79.00;;;;;;5088872;28;20032;-68
2023/12/05 12:26:27;;;;;;;21.67;12.97;;;6.00;79.00;;;;;;5101668;28;20062;-68
2023/12/05 12:28:53;;;;;;;22.97;12.70;;;6.00;79.00;;;;;;5086259;28;20413;-68
2023/12/05 12:31:27;;;;;;;24.47;15.10;;;5.90;79.00;;;;;;5114647;28;20063;-68
2023/12/05 12:33:53;;;;;;;25.17;15.37;;;5.90;79.00;;;;;;5095854;28;20317;-68
2023/12/05 12:36:19;;;;;;;23.37;13.27;;;5.90;79.00;;;;;;5113976;28;20028;-68
2023/12/05 12:38:45;;;;;;;24.40;15.33;;;5.90;79.00;;;;;;5109991;28;20035;-68